sensor_id;sensor_type;location;lat;lon;timestamp;P1;durP1;ratioP1;P2;durP2;ratioP2
18239;SDS011;9244;50.828;4.718;2022-07-10T00:00:13;2.37;;;1.30;;
18239;SDS011;9244;50.828;4.718;2022-07-10T00:02:40;2.63;;;1.20;;
18239;SDS011;9244;50.828;4.718;2022-07-10T00:05:07;1.30;;;1.00;;
18239;SDS011;9244;50.828;4.718;2022-07-10T00:07:33;1.20;;;1.10;;
18239;SDS011;9244;50.828;4.718;2022-07-10T00:09:59;1.17;;;0.87;;
18239;SDS011;9244;50.828;4.718;2022-07-10T00:12:24;1.30;;;1.20;;
18239;SDS011;9244;50.828;4.718;2022-07-10T00:14:51;2.03;;;1.20;;
18239;SDS011;9244;50.828;4.718;2022-07-10T00:17:16;1.33;;;1.23;;
18239;SDS011;9244;50.828;4.718;2022-07-10T00:19:42;1.23;;;1.13;;
18239;SDS011;9244;50.828;4.718;2022-07-10T00:22:08;1.40;;;0.97;;
18239;SDS011;9244;50.828;4.718;2022-07-10T00:24:34;2.27;;;1.47;;
18239;SDS011;9244;50.828;4.718;2022-07-10T00:27:00;1.70;;;1.20;;
18239;SDS011;9244;50.828;4.718;2022-07-10T00:29:25;1.60;;;1.20;;
18239;SDS011;9244;50.828;4.718;2022-07-10T00:31:51;3.27;;;1.33;;
18239;SDS011;9244;50.828;4.718;2022-07-10T00:34:16;2.10;;;1.20;;
18239;SDS011;9244;50.828;4.718;2022-07-10T00:36:42;1.57;;;1.07;;
18239;SDS011;9244;50.828;4.718;2022-07-10T00:39:08;1.27;;;1.03;;
18239;SDS011;9244;50.828;4.718;2022-07-10T00:41:34;2.17;;;1.00;;
18239;SDS011;9244;50.828;4.718;2022-07-10T00:44:00;1.07;;;1.07;;
18239;SDS011;9244;50.828;4.718;2022-07-10T00:46:27;3.60;;;1.30;;
18239;SDS011;9244;50.828;4.718;2022-07-10T00:48:54;1.63;;;1.20;;
18239;SDS011;9244;50.828;4.718;2022-07-10T00:51:21;3.57;;;1.50;;
18239;SDS011;9244;50.828;4.718;2022-07-10T00:53:49;2.60;;;1.50;;
18239;SDS011;9244;50.828;4.718;2022-07-10T00:56:15;1.57;;;1.20;;
18239;SDS011;9244;50.828;4.718;2022-07-10T00:58:45;3.87;;;1.23;;
18239;SDS011;9244;50.828;4.718;2022-07-10T01:01:12;1.80;;;1.10;;
18239;SDS011;9244;50.828;4.718;2022-07-10T01:03:38;1.77;;;0.97;;
18239;SDS011;9244;50.828;4.718;2022-07-10T01:06:03;1.73;;;1.20;;
18239;SDS011;9244;50.828;4.718;2022-07-10T01:08:29;2.07;;;1.30;;
18239;SDS011;9244;50.828;4.718;2022-07-10T01:10:55;2.00;;;1.10;;
18239;SDS011;9244;50.828;4.718;2022-07-10T01:13:21;1.77;;;1.20;;
18239;SDS011;9244;50.828;4.718;2022-07-10T01:15:47;2.97;;;1.40;;
18239;SDS011;9244;50.828;4.718;2022-07-10T01:18:14;3.23;;;1.30;;
18239;SDS011;9244;50.828;4.718;2022-07-10T01:20:39;2.97;;;1.20;;
18239;SDS011;9244;50.828;4.718;2022-07-10T01:23:05;1.87;;;1.20;;
18239;SDS011;9244;50.828;4.718;2022-07-10T01:25:31;1.97;;;1.00;;
18239;SDS011;9244;50.828;4.718;2022-07-10T01:27:57;2.93;;;1.20;;
18239;SDS011;9244;50.828;4.718;2022-07-10T01:30:24;1.33;;;1.20;;
18239;SDS011;9244;50.828;4.718;2022-07-10T01:32:50;3.97;;;1.50;;
18239;SDS011;9244;50.828;4.718;2022-07-10T01:35:17;2.23;;;1.20;;
18239;SDS011;9244;50.828;4.718;2022-07-10T01:37:43;2.23;;;1.60;;
18239;SDS011;9244;50.828;4.718;2022-07-10T01:40:10;1.40;;;1.30;;
18239;SDS011;9244;50.828;4.718;2022-07-10T01:42:37;1.83;;;1.20;;
18239;SDS011;9244;50.828;4.718;2022-07-10T01:45:04;2.27;;;1.23;;
18239;SDS011;9244;50.828;4.718;2022-07-10T01:47:31;1.20;;;1.10;;
18239;SDS011;9244;50.828;4.718;2022-07-10T01:49:56;3.53;;;1.50;;
18239;SDS011;9244;50.828;4.718;2022-07-10T01:52:22;1.97;;;1.30;;
18239;SDS011;9244;50.828;4.718;2022-07-10T01:54:48;2.40;;;1.20;;
18239;SDS011;9244;50.828;4.718;2022-07-10T01:57:14;1.60;;;1.40;;
18239;SDS011;9244;50.828;4.718;2022-07-10T01:59:40;2.13;;;1.40;;
18239;SDS011;9244;50.828;4.718;2022-07-10T02:02:06;1.90;;;1.50;;
18239;SDS011;9244;50.828;4.718;2022-07-10T02:04:32;1.47;;;1.37;;
18239;SDS011;9244;50.828;4.718;2022-07-10T02:07:08;1.83;;;1.30;;
18239;SDS011;9244;50.828;4.718;2022-07-10T02:09:34;2.90;;;1.40;;
18239;SDS011;9244;50.828;4.718;2022-07-10T02:12:00;1.50;;;1.40;;
18239;SDS011;9244;50.828;4.718;2022-07-10T02:14:27;1.87;;;1.60;;
18239;SDS011;9244;50.828;4.718;2022-07-10T02:16:52;2.40;;;1.70;;
18239;SDS011;9244;50.828;4.718;2022-07-10T02:19:18;1.90;;;1.40;;
18239;SDS011;9244;50.828;4.718;2022-07-10T02:21:44;2.53;;;1.57;;
18239;SDS011;9244;50.828;4.718;2022-07-10T02:24:11;1.60;;;1.50;;
18239;SDS011;9244;50.828;4.718;2022-07-10T02:26:36;1.80;;;1.57;;
18239;SDS011;9244;50.828;4.718;2022-07-10T02:29:02;2.33;;;1.90;;
18239;SDS011;9244;50.828;4.718;2022-07-10T02:31:28;2.57;;;1.50;;
18239;SDS011;9244;50.828;4.718;2022-07-10T02:33:54;2.83;;;1.37;;
18239;SDS011;9244;50.828;4.718;2022-07-10T02:36:19;2.97;;;1.53;;
18239;SDS011;9244;50.828;4.718;2022-07-10T02:38:45;2.00;;;1.50;;
18239;SDS011;9244;50.828;4.718;2022-07-10T02:41:10;2.87;;;1.60;;
18239;SDS011;9244;50.828;4.718;2022-07-10T02:43:36;1.67;;;1.40;;
18239;SDS011;9244;50.828;4.718;2022-07-10T02:46:02;2.03;;;1.33;;
18239;SDS011;9244;50.828;4.718;2022-07-10T02:48:28;2.93;;;1.60;;
18239;SDS011;9244;50.828;4.718;2022-07-10T02:50:53;1.53;;;1.43;;
18239;SDS011;9244;50.828;4.718;2022-07-10T02:53:19;4.03;;;1.60;;
18239;SDS011;9244;50.828;4.718;2022-07-10T02:55:45;2.10;;;1.90;;
18239;SDS011;9244;50.828;4.718;2022-07-10T02:58:10;3.90;;;1.97;;
18239;SDS011;9244;50.828;4.718;2022-07-10T03:00:36;2.40;;;1.80;;
18239;SDS011;9244;50.828;4.718;2022-07-10T03:03:02;3.17;;;1.67;;
18239;SDS011;9244;50.828;4.718;2022-07-10T03:05:28;1.53;;;1.40;;
18239;SDS011;9244;50.828;4.718;2022-07-10T03:07:54;3.47;;;1.60;;
18239;SDS011;9244;50.828;4.718;2022-07-10T03:10:20;1.93;;;1.50;;
18239;SDS011;9244;50.828;4.718;2022-07-10T03:12:45;2.50;;;1.60;;
18239;SDS011;9244;50.828;4.718;2022-07-10T03:15:12;2.13;;;1.90;;
18239;SDS011;9244;50.828;4.718;2022-07-10T03:17:38;1.60;;;1.50;;
18239;SDS011;9244;50.828;4.718;2022-07-10T03:20:04;2.60;;;1.60;;
18239;SDS011;9244;50.828;4.718;2022-07-10T03:22:31;1.60;;;1.50;;
18239;SDS011;9244;50.828;4.718;2022-07-10T03:24:57;1.63;;;1.33;;
18239;SDS011;9244;50.828;4.718;2022-07-10T03:27:23;2.00;;;1.80;;
18239;SDS011;9244;50.828;4.718;2022-07-10T03:29:49;1.60;;;1.50;;
18239;SDS011;9244;50.828;4.718;2022-07-10T03:32:14;3.07;;;1.77;;
18239;SDS011;9244;50.828;4.718;2022-07-10T03:34:40;5.43;;;2.70;;
18239;SDS011;9244;50.828;4.718;2022-07-10T03:37:06;5.93;;;2.10;;
18239;SDS011;9244;50.828;4.718;2022-07-10T03:39:32;2.90;;;1.40;;
18239;SDS011;9244;50.828;4.718;2022-07-10T03:41:57;1.67;;;1.57;;
18239;SDS011;9244;50.828;4.718;2022-07-10T03:44:23;1.63;;;1.53;;
18239;SDS011;9244;50.828;4.718;2022-07-10T03:46:49;2.47;;;1.70;;
18239;SDS011;9244;50.828;4.718;2022-07-10T03:49:15;2.13;;;1.53;;
18239;SDS011;9244;50.828;4.718;2022-07-10T03:51:41;1.87;;;1.60;;
18239;SDS011;9244;50.828;4.718;2022-07-10T03:54:06;2.63;;;1.70;;
18239;SDS011;9244;50.828;4.718;2022-07-10T03:56:32;3.20;;;1.70;;
18239;SDS011;9244;50.828;4.718;2022-07-10T03:59:16;1.73;;;1.33;;
18239;SDS011;9244;50.828;4.718;2022-07-10T04:01:42;1.80;;;1.40;;
18239;SDS011;9244;50.828;4.718;2022-07-10T04:04:08;1.93;;;1.83;;
18239;SDS011;9244;50.828;4.718;2022-07-10T04:06:34;1.93;;;1.53;;
18239;SDS011;9244;50.828;4.718;2022-07-10T04:09:03;1.63;;;1.40;;
18239;SDS011;9244;50.828;4.718;2022-07-10T04:11:29;2.23;;;1.73;;
18239;SDS011;9244;50.828;4.718;2022-07-10T04:13:55;2.13;;;1.67;;
18239;SDS011;9244;50.828;4.718;2022-07-10T04:16:20;2.60;;;1.80;;
18239;SDS011;9244;50.828;4.718;2022-07-10T04:18:46;3.27;;;1.90;;
18239;SDS011;9244;50.828;4.718;2022-07-10T04:21:11;1.83;;;1.70;;
18239;SDS011;9244;50.828;4.718;2022-07-10T04:23:37;2.10;;;1.90;;
18239;SDS011;9244;50.828;4.718;2022-07-10T04:26:03;3.27;;;1.87;;
18239;SDS011;9244;50.828;4.718;2022-07-10T04:28:28;2.57;;;1.57;;
18239;SDS011;9244;50.828;4.718;2022-07-10T04:30:54;2.03;;;1.83;;
18239;SDS011;9244;50.828;4.718;2022-07-10T04:33:19;2.40;;;1.60;;
18239;SDS011;9244;50.828;4.718;2022-07-10T04:35:45;1.83;;;1.67;;
18239;SDS011;9244;50.828;4.718;2022-07-10T04:38:10;1.73;;;1.63;;
18239;SDS011;9244;50.828;4.718;2022-07-10T04:40:36;3.83;;;1.90;;
18239;SDS011;9244;50.828;4.718;2022-07-10T04:43:02;1.93;;;1.73;;
18239;SDS011;9244;50.828;4.718;2022-07-10T04:45:27;2.47;;;1.53;;
18239;SDS011;9244;50.828;4.718;2022-07-10T04:47:53;2.70;;;1.50;;
18239;SDS011;9244;50.828;4.718;2022-07-10T04:50:19;2.40;;;1.77;;
18239;SDS011;9244;50.828;4.718;2022-07-10T04:52:44;2.10;;;1.93;;
18239;SDS011;9244;50.828;4.718;2022-07-10T04:55:10;2.10;;;1.50;;
18239;SDS011;9244;50.828;4.718;2022-07-10T04:57:35;1.90;;;1.57;;
18239;SDS011;9244;50.828;4.718;2022-07-10T05:00:01;1.93;;;1.40;;
18239;SDS011;9244;50.828;4.718;2022-07-10T05:02:28;2.00;;;1.80;;
18239;SDS011;9244;50.828;4.718;2022-07-10T05:04:53;2.03;;;1.83;;
18239;SDS011;9244;50.828;4.718;2022-07-10T05:07:19;1.87;;;1.60;;
18239;SDS011;9244;50.828;4.718;2022-07-10T05:09:45;2.23;;;2.03;;
18239;SDS011;9244;50.828;4.718;2022-07-10T05:12:10;2.90;;;1.83;;
18239;SDS011;9244;50.828;4.718;2022-07-10T05:14:36;4.47;;;1.90;;
18239;SDS011;9244;50.828;4.718;2022-07-10T05:17:01;3.37;;;1.80;;
18239;SDS011;9244;50.828;4.718;2022-07-10T05:19:27;1.83;;;1.33;;
18239;SDS011;9244;50.828;4.718;2022-07-10T05:21:54;1.43;;;1.33;;
18239;SDS011;9244;50.828;4.718;2022-07-10T05:24:20;1.97;;;1.70;;
18239;SDS011;9244;50.828;4.718;2022-07-10T05:26:45;2.00;;;1.53;;
18239;SDS011;9244;50.828;4.718;2022-07-10T05:29:11;3.20;;;1.87;;
18239;SDS011;9244;50.828;4.718;2022-07-10T05:31:37;3.63;;;1.70;;
18239;SDS011;9244;50.828;4.718;2022-07-10T05:34:02;2.33;;;1.33;;
18239;SDS011;9244;50.828;4.718;2022-07-10T05:36:28;2.50;;;1.97;;
18239;SDS011;9244;50.828;4.718;2022-07-10T05:38:54;1.40;;;1.30;;
18239;SDS011;9244;50.828;4.718;2022-07-10T05:41:19;3.77;;;1.83;;
18239;SDS011;9244;50.828;4.718;2022-07-10T05:43:45;4.17;;;1.50;;
18239;SDS011;9244;50.828;4.718;2022-07-10T05:46:11;2.27;;;1.50;;
18239;SDS011;9244;50.828;4.718;2022-07-10T05:48:36;3.70;;;1.53;;
18239;SDS011;9244;50.828;4.718;2022-07-10T05:51:03;3.50;;;1.27;;
18239;SDS011;9244;50.828;4.718;2022-07-10T05:53:29;2.13;;;1.37;;
18239;SDS011;9244;50.828;4.718;2022-07-10T05:55:55;2.77;;;1.90;;
18239;SDS011;9244;50.828;4.718;2022-07-10T05:58:25;2.10;;;1.70;;
18239;SDS011;9244;50.828;4.718;2022-07-10T06:00:50;3.35;;;1.40;;
18239;SDS011;9244;50.828;4.718;2022-07-10T06:03:16;2.40;;;1.37;;
18239;SDS011;9244;50.828;4.718;2022-07-10T06:05:42;1.83;;;1.35;;
18239;SDS011;9244;50.828;4.718;2022-07-10T06:08:07;2.45;;;1.40;;
18239;SDS011;9244;50.828;4.718;2022-07-10T06:10:35;1.92;;;1.38;;
18239;SDS011;9244;50.828;4.718;2022-07-10T06:13:00;2.05;;;1.45;;
18239;SDS011;9244;50.828;4.718;2022-07-10T06:15:26;4.10;;;1.63;;
18239;SDS011;9244;50.828;4.718;2022-07-10T06:17:52;3.10;;;1.27;;
18239;SDS011;9244;50.828;4.718;2022-07-10T06:20:20;2.22;;;1.40;;
18239;SDS011;9244;50.828;4.718;2022-07-10T06:22:46;3.40;;;1.55;;
18239;SDS011;9244;50.828;4.718;2022-07-10T06:25:12;1.50;;;1.25;;
18239;SDS011;9244;50.828;4.718;2022-07-10T06:27:37;3.20;;;1.08;;
18239;SDS011;9244;50.828;4.718;2022-07-10T06:30:03;1.50;;;1.30;;
18239;SDS011;9244;50.828;4.718;2022-07-10T06:32:29;4.55;;;1.50;;
18239;SDS011;9244;50.828;4.718;2022-07-10T06:34:55;1.75;;;1.20;;
18239;SDS011;9244;50.828;4.718;2022-07-10T06:37:21;2.38;;;1.10;;
18239;SDS011;9244;50.828;4.718;2022-07-10T06:39:46;1.58;;;0.90;;
18239;SDS011;9244;50.828;4.718;2022-07-10T06:42:13;4.00;;;1.25;;
18239;SDS011;9244;50.828;4.718;2022-07-10T06:44:38;1.73;;;1.30;;
18239;SDS011;9244;50.828;4.718;2022-07-10T06:47:04;1.58;;;0.90;;
18239;SDS011;9244;50.828;4.718;2022-07-10T06:49:51;2.05;;;1.00;;
18239;SDS011;9244;50.828;4.718;2022-07-10T06:52:18;2.30;;;1.15;;
18239;SDS011;9244;50.828;4.718;2022-07-10T06:54:43;4.68;;;1.20;;
18239;SDS011;9244;50.828;4.718;2022-07-10T06:57:09;1.30;;;0.85;;
18239;SDS011;9244;50.828;4.718;2022-07-10T06:59:35;3.03;;;1.08;;
18239;SDS011;9244;50.828;4.718;2022-07-10T07:02:01;3.05;;;1.17;;
18239;SDS011;9244;50.828;4.718;2022-07-10T07:04:26;3.63;;;1.25;;
18239;SDS011;9244;50.828;4.718;2022-07-10T07:06:52;2.50;;;0.93;;
18239;SDS011;9244;50.828;4.718;2022-07-10T07:09:18;1.40;;;0.95;;
18239;SDS011;9244;50.828;4.718;2022-07-10T07:11:43;1.10;;;1.00;;
18239;SDS011;9244;50.828;4.718;2022-07-10T07:14:10;1.42;;;1.00;;
18239;SDS011;9244;50.828;4.718;2022-07-10T07:16:36;2.85;;;1.05;;
18239;SDS011;9244;50.828;4.718;2022-07-10T07:19:10;2.80;;;1.13;;
18239;SDS011;9244;50.828;4.718;2022-07-10T07:21:37;6.65;;;1.35;;
18239;SDS011;9244;50.828;4.718;2022-07-10T07:24:21;1.98;;;0.77;;
18239;SDS011;9244;50.828;4.718;2022-07-10T07:26:47;1.00;;;0.80;;
18239;SDS011;9244;50.828;4.718;2022-07-10T07:29:14;1.90;;;0.80;;
18239;SDS011;9244;50.828;4.718;2022-07-10T07:31:40;2.28;;;1.02;;
18239;SDS011;9244;50.828;4.718;2022-07-10T07:34:06;2.63;;;0.98;;
18239;SDS011;9244;50.828;4.718;2022-07-10T07:36:32;1.80;;;0.82;;
18239;SDS011;9244;50.828;4.718;2022-07-10T07:38:57;3.45;;;0.88;;
18239;SDS011;9244;50.828;4.718;2022-07-10T07:41:23;2.20;;;1.10;;
18239;SDS011;9244;50.828;4.718;2022-07-10T07:43:49;0.57;;;0.50;;
18239;SDS011;9244;50.828;4.718;2022-07-10T07:46:15;2.47;;;0.70;;
18239;SDS011;9244;50.828;4.718;2022-07-10T07:48:41;2.78;;;1.00;;
18239;SDS011;9244;50.828;4.718;2022-07-10T07:51:07;1.25;;;0.70;;
18239;SDS011;9244;50.828;4.718;2022-07-10T07:53:33;1.75;;;0.75;;
18239;SDS011;9244;50.828;4.718;2022-07-10T07:55:58;2.28;;;0.73;;
18239;SDS011;9244;50.828;4.718;2022-07-10T07:58:24;3.40;;;0.80;;
18239;SDS011;9244;50.828;4.718;2022-07-10T08:00:50;1.25;;;0.65;;
18239;SDS011;9244;50.828;4.718;2022-07-10T08:03:15;4.93;;;1.20;;
18239;SDS011;9244;50.828;4.718;2022-07-10T08:05:41;1.95;;;0.80;;
18239;SDS011;9244;50.828;4.718;2022-07-10T08:08:07;2.53;;;0.88;;
18239;SDS011;9244;50.828;4.718;2022-07-10T08:10:35;1.58;;;0.80;;
18239;SDS011;9244;50.828;4.718;2022-07-10T08:13:02;1.90;;;0.70;;
18239;SDS011;9244;50.828;4.718;2022-07-10T08:15:28;1.20;;;0.95;;
18239;SDS011;9244;50.828;4.718;2022-07-10T08:17:55;1.63;;;0.70;;
18239;SDS011;9244;50.828;4.718;2022-07-10T08:20:21;1.40;;;0.80;;
18239;SDS011;9244;50.828;4.718;2022-07-10T08:22:48;1.67;;;0.82;;
18239;SDS011;9244;50.828;4.718;2022-07-10T08:25:13;1.92;;;0.90;;
18239;SDS011;9244;50.828;4.718;2022-07-10T08:27:39;1.15;;;0.70;;
18239;SDS011;9244;50.828;4.718;2022-07-10T08:30:05;1.35;;;0.73;;
18239;SDS011;9244;50.828;4.718;2022-07-10T08:32:33;3.17;;;0.90;;
18239;SDS011;9244;50.828;4.718;2022-07-10T08:35:00;2.22;;;0.95;;
18239;SDS011;9244;50.828;4.718;2022-07-10T08:37:25;1.65;;;0.80;;
18239;SDS011;9244;50.828;4.718;2022-07-10T08:39:51;0.82;;;0.75;;
18239;SDS011;9244;50.828;4.718;2022-07-10T08:42:17;2.47;;;0.90;;
18239;SDS011;9244;50.828;4.718;2022-07-10T08:44:43;1.70;;;0.80;;
18239;SDS011;9244;50.828;4.718;2022-07-10T08:47:09;2.20;;;0.80;;
18239;SDS011;9244;50.828;4.718;2022-07-10T08:49:38;1.48;;;0.80;;
18239;SDS011;9244;50.828;4.718;2022-07-10T08:52:17;1.33;;;0.77;;
18239;SDS011;9244;50.828;4.718;2022-07-10T08:54:52;1.17;;;1.00;;
18239;SDS011;9244;50.828;4.718;2022-07-10T08:57:18;1.73;;;1.10;;
18239;SDS011;9244;50.828;4.718;2022-07-10T08:59:45;1.92;;;0.93;;
18239;SDS011;9244;50.828;4.718;2022-07-10T09:02:10;4.63;;;0.90;;
18239;SDS011;9244;50.828;4.718;2022-07-10T09:04:36;1.98;;;1.08;;
18239;SDS011;9244;50.828;4.718;2022-07-10T09:07:02;1.35;;;0.90;;
18239;SDS011;9244;50.828;4.718;2022-07-10T09:09:29;1.52;;;0.90;;
18239;SDS011;9244;50.828;4.718;2022-07-10T09:11:57;3.03;;;1.27;;
18239;SDS011;9244;50.828;4.718;2022-07-10T09:14:25;1.08;;;0.80;;
18239;SDS011;9244;50.828;4.718;2022-07-10T09:16:53;2.15;;;0.68;;
18239;SDS011;9244;50.828;4.718;2022-07-10T09:19:20;1.52;;;0.90;;
18239;SDS011;9244;50.828;4.718;2022-07-10T09:21:52;1.20;;;0.70;;
18239;SDS011;9244;50.828;4.718;2022-07-10T09:24:35;1.42;;;0.80;;
18239;SDS011;9244;50.828;4.718;2022-07-10T09:27:01;0.80;;;0.80;;
18239;SDS011;9244;50.828;4.718;2022-07-10T09:29:31;1.40;;;0.73;;
18239;SDS011;9244;50.828;4.718;2022-07-10T09:32:00;1.02;;;0.70;;
18239;SDS011;9244;50.828;4.718;2022-07-10T09:34:40;2.80;;;0.70;;
18239;SDS011;9244;50.828;4.718;2022-07-10T09:37:26;1.70;;;0.77;;
18239;SDS011;9244;50.828;4.718;2022-07-10T09:39:57;2.25;;;0.75;;
18239;SDS011;9244;50.828;4.718;2022-07-10T09:42:26;1.00;;;0.80;;
18239;SDS011;9244;50.828;4.718;2022-07-10T09:47:44;4.40;;;1.45;;
18239;SDS011;9244;50.828;4.718;2022-07-10T09:52:52;3.03;;;1.23;;
18239;SDS011;9244;50.828;4.718;2022-07-10T09:55:22;2.13;;;0.98;;
18239;SDS011;9244;50.828;4.718;2022-07-10T09:57:52;1.10;;;0.88;;
18239;SDS011;9244;50.828;4.718;2022-07-10T10:00:22;1.17;;;0.95;;
18239;SDS011;9244;50.828;4.718;2022-07-10T10:02:50;1.65;;;0.88;;
18239;SDS011;9244;50.828;4.718;2022-07-10T10:05:28;1.30;;;0.90;;
18239;SDS011;9244;50.828;4.718;2022-07-10T10:07:58;1.85;;;1.13;;
18239;SDS011;9244;50.828;4.718;2022-07-10T10:10:34;1.30;;;0.80;;
18239;SDS011;9244;50.828;4.718;2022-07-10T10:13:01;1.10;;;1.00;;
18239;SDS011;9244;50.828;4.718;2022-07-10T10:15:34;1.77;;;1.05;;
18239;SDS011;9244;50.828;4.718;2022-07-10T10:18:01;1.00;;;0.80;;
18239;SDS011;9244;50.828;4.718;2022-07-10T10:20:27;0.77;;;0.77;;
18239;SDS011;9244;50.828;4.718;2022-07-10T10:23:09;1.35;;;0.90;;
18239;SDS011;9244;50.828;4.718;2022-07-10T10:25:36;2.05;;;0.90;;
18239;SDS011;9244;50.828;4.718;2022-07-10T10:28:04;1.65;;;0.75;;
18239;SDS011;9244;50.828;4.718;2022-07-10T10:30:33;5.07;;;0.98;;
18239;SDS011;9244;50.828;4.718;2022-07-10T10:33:01;0.82;;;0.80;;
18239;SDS011;9244;50.828;4.718;2022-07-10T10:35:41;1.15;;;1.00;;
18239;SDS011;9244;50.828;4.718;2022-07-10T10:38:14;1.52;;;0.70;;
18239;SDS011;9244;50.828;4.718;2022-07-10T10:40:40;1.50;;;0.93;;
18239;SDS011;9244;50.828;4.718;2022-07-10T10:43:19;1.05;;;0.95;;
18239;SDS011;9244;50.828;4.718;2022-07-10T10:45:49;0.75;;;0.63;;
18239;SDS011;9244;50.828;4.718;2022-07-10T10:48:17;1.20;;;0.90;;
18239;SDS011;9244;50.828;4.718;2022-07-10T10:50:48;1.58;;;1.15;;
18239;SDS011;9244;50.828;4.718;2022-07-10T10:58:38;1.63;;;1.30;;
18239;SDS011;9244;50.828;4.718;2022-07-10T11:12:03;1.02;;;0.90;;
18239;SDS011;9244;50.828;4.718;2022-07-10T11:14:34;3.15;;;1.20;;
18239;SDS011;9244;50.828;4.718;2022-07-10T11:17:03;1.83;;;1.17;;
18239;SDS011;9244;50.828;4.718;2022-07-10T11:19:30;1.88;;;1.00;;
18239;SDS011;9244;50.828;4.718;2022-07-10T11:27:34;1.83;;;1.00;;
18239;SDS011;9244;50.828;4.718;2022-07-10T11:30:22;3.13;;;0.90;;
18239;SDS011;9244;50.828;4.718;2022-07-10T11:32:48;1.17;;;1.02;;
18239;SDS011;9244;50.828;4.718;2022-07-10T11:35:15;1.92;;;1.08;;
18239;SDS011;9244;50.828;4.718;2022-07-10T11:38:17;2.95;;;1.38;;
18239;SDS011;9244;50.828;4.718;2022-07-10T11:40:37;1.27;;;1.00;;
18239;SDS011;9244;50.828;4.718;2022-07-10T11:43:03;1.95;;;1.30;;
18239;SDS011;9244;50.828;4.718;2022-07-10T11:45:32;2.53;;;1.58;;
18239;SDS011;9244;50.828;4.718;2022-07-10T11:48:01;1.63;;;1.20;;
18239;SDS011;9244;50.828;4.718;2022-07-10T11:50:33;1.13;;;1.00;;
18239;SDS011;9244;50.828;4.718;2022-07-10T11:53:01;1.45;;;1.20;;
18239;SDS011;9244;50.828;4.718;2022-07-10T11:55:28;2.80;;;1.90;;
18239;SDS011;9244;50.828;4.718;2022-07-10T11:57:55;1.33;;;1.20;;
18239;SDS011;9244;50.828;4.718;2022-07-10T12:00:28;1.38;;;1.02;;
18239;SDS011;9244;50.828;4.718;2022-07-10T12:02:55;1.20;;;1.10;;
18239;SDS011;9244;50.828;4.718;2022-07-10T12:05:29;2.33;;;1.50;;
18239;SDS011;9244;50.828;4.718;2022-07-10T12:07:58;3.55;;;1.27;;
18239;SDS011;9244;50.828;4.718;2022-07-10T12:10:27;2.13;;;1.15;;
18239;SDS011;9244;50.828;4.718;2022-07-10T12:13:02;1.40;;;1.30;;
18239;SDS011;9244;50.828;4.718;2022-07-10T12:15:34;1.42;;;1.17;;
18239;SDS011;9244;50.828;4.718;2022-07-10T12:18:02;1.33;;;1.23;;
18239;SDS011;9244;50.828;4.718;2022-07-10T12:20:32;4.28;;;1.63;;
18239;SDS011;9244;50.828;4.718;2022-07-10T12:22:59;2.50;;;1.33;;
18239;SDS011;9244;50.828;4.718;2022-07-10T12:25:25;1.65;;;1.23;;
18239;SDS011;9244;50.828;4.718;2022-07-10T12:27:57;1.40;;;1.30;;
18239;SDS011;9244;50.828;4.718;2022-07-10T12:30:24;1.65;;;1.27;;
18239;SDS011;9244;50.828;4.718;2022-07-10T12:33:14;2.28;;;1.70;;
18239;SDS011;9244;50.828;4.718;2022-07-10T12:38:17;4.03;;;1.40;;
18239;SDS011;9244;50.828;4.718;2022-07-10T12:40:44;1.50;;;1.40;;
18239;SDS011;9244;50.828;4.718;2022-07-10T12:43:10;1.60;;;1.50;;
18239;SDS011;9244;50.828;4.718;2022-07-10T12:45:36;1.70;;;1.60;;
18239;SDS011;9244;50.828;4.718;2022-07-10T12:48:04;2.15;;;1.30;;
18239;SDS011;9244;50.828;4.718;2022-07-10T12:50:31;1.95;;;1.33;;
18239;SDS011;9244;50.828;4.718;2022-07-10T12:53:10;1.38;;;1.00;;
18239;SDS011;9244;50.828;4.718;2022-07-10T12:55:39;1.45;;;1.30;;
18239;SDS011;9244;50.828;4.718;2022-07-10T12:58:07;1.33;;;1.23;;
18239;SDS011;9244;50.828;4.718;2022-07-10T13:00:44;2.08;;;1.42;;
18239;SDS011;9244;50.828;4.718;2022-07-10T13:03:20;2.35;;;1.17;;
18239;SDS011;9244;50.828;4.718;2022-07-10T13:05:49;1.27;;;1.10;;
18239;SDS011;9244;50.828;4.718;2022-07-10T13:08:16;1.30;;;1.20;;
18239;SDS011;9244;50.828;4.718;2022-07-10T13:10:53;1.30;;;1.20;;
18239;SDS011;9244;50.828;4.718;2022-07-10T13:13:23;1.65;;;1.45;;
18239;SDS011;9244;50.828;4.718;2022-07-10T13:15:49;4.35;;;1.50;;
18239;SDS011;9244;50.828;4.718;2022-07-10T13:18:20;1.33;;;1.23;;
18239;SDS011;9244;50.828;4.718;2022-07-10T13:20:47;1.42;;;1.30;;
18239;SDS011;9244;50.828;4.718;2022-07-10T13:23:14;1.67;;;1.48;;
18239;SDS011;9244;50.828;4.718;2022-07-10T13:25:41;2.38;;;1.55;;
18239;SDS011;9244;50.828;4.718;2022-07-10T13:28:07;1.60;;;1.30;;
18239;SDS011;9244;50.828;4.718;2022-07-10T13:30:36;1.75;;;1.33;;
18239;SDS011;9244;50.828;4.718;2022-07-10T13:33:02;2.28;;;1.27;;
18239;SDS011;9244;50.828;4.718;2022-07-10T13:35:28;2.30;;;1.40;;
18239;SDS011;9244;50.828;4.718;2022-07-10T13:37:54;3.38;;;1.25;;
18239;SDS011;9244;50.828;4.718;2022-07-10T13:40:21;1.35;;;1.00;;
18239;SDS011;9244;50.828;4.718;2022-07-10T13:42:46;2.25;;;1.30;;
18239;SDS011;9244;50.828;4.718;2022-07-10T13:45:12;2.20;;;1.30;;
18239;SDS011;9244;50.828;4.718;2022-07-10T13:47:37;2.72;;;1.30;;
18239;SDS011;9244;50.828;4.718;2022-07-10T13:50:03;1.67;;;1.30;;
18239;SDS011;9244;50.828;4.718;2022-07-10T13:52:29;1.50;;;1.30;;
18239;SDS011;9244;50.828;4.718;2022-07-10T13:54:55;1.88;;;1.30;;
18239;SDS011;9244;50.828;4.718;2022-07-10T13:57:21;1.35;;;1.25;;
18239;SDS011;9244;50.828;4.718;2022-07-10T13:59:48;1.23;;;1.23;;
18239;SDS011;9244;50.828;4.718;2022-07-10T14:02:14;1.52;;;1.42;;
18239;SDS011;9244;50.828;4.718;2022-07-10T14:04:39;1.73;;;1.20;;
18239;SDS011;9244;50.828;4.718;2022-07-10T14:07:05;2.15;;;1.33;;
18239;SDS011;9244;50.828;4.718;2022-07-10T14:09:31;1.85;;;1.20;;
18239;SDS011;9244;50.828;4.718;2022-07-10T14:11:57;1.10;;;1.10;;
18239;SDS011;9244;50.828;4.718;2022-07-10T14:14:22;1.77;;;1.45;;
18239;SDS011;9244;50.828;4.718;2022-07-10T14:16:48;1.45;;;1.10;;
18239;SDS011;9244;50.828;4.718;2022-07-10T14:19:15;2.72;;;1.30;;
18239;SDS011;9244;50.828;4.718;2022-07-10T14:21:40;1.73;;;1.15;;
18239;SDS011;9244;50.828;4.718;2022-07-10T14:24:06;1.10;;;1.00;;
18239;SDS011;9244;50.828;4.718;2022-07-10T14:26:32;0.90;;;0.90;;
18239;SDS011;9244;50.828;4.718;2022-07-10T14:29:00;1.25;;;1.02;;
18239;SDS011;9244;50.828;4.718;2022-07-10T14:31:29;2.45;;;1.38;;
18239;SDS011;9244;50.828;4.718;2022-07-10T14:33:55;2.22;;;1.52;;
18239;SDS011;9244;50.828;4.718;2022-07-10T14:36:21;1.20;;;1.10;;
18239;SDS011;9244;50.828;4.718;2022-07-10T14:38:51;0.98;;;0.95;;
18239;SDS011;9244;50.828;4.718;2022-07-10T14:41:20;0.90;;;0.90;;
18239;SDS011;9244;50.828;4.718;2022-07-10T14:43:46;1.55;;;1.17;;
18239;SDS011;9244;50.828;4.718;2022-07-10T14:46:11;1.75;;;1.10;;
18239;SDS011;9244;50.828;4.718;2022-07-10T14:48:37;1.33;;;1.00;;
18239;SDS011;9244;50.828;4.718;2022-07-10T14:51:03;1.75;;;1.35;;
18239;SDS011;9244;50.828;4.718;2022-07-10T14:53:29;1.27;;;1.17;;
18239;SDS011;9244;50.828;4.718;2022-07-10T14:55:59;0.90;;;0.90;;
18239;SDS011;9244;50.828;4.718;2022-07-10T14:58:25;1.25;;;0.90;;
18239;SDS011;9244;50.828;4.718;2022-07-10T15:00:51;0.85;;;0.85;;
18239;SDS011;9244;50.828;4.718;2022-07-10T15:03:17;2.45;;;1.10;;
18239;SDS011;9244;50.828;4.718;2022-07-10T15:05:42;2.42;;;0.88;;
18239;SDS011;9244;50.828;4.718;2022-07-10T15:08:08;1.13;;;0.90;;
18239;SDS011;9244;50.828;4.718;2022-07-10T15:10:34;1.23;;;1.08;;
18239;SDS011;9244;50.828;4.718;2022-07-10T15:12:59;1.02;;;1.00;;
18239;SDS011;9244;50.828;4.718;2022-07-10T15:15:29;1.08;;;1.08;;
18239;SDS011;9244;50.828;4.718;2022-07-10T15:17:55;1.27;;;1.02;;
18239;SDS011;9244;50.828;4.718;2022-07-10T15:20:20;0.80;;;0.80;;
18239;SDS011;9244;50.828;4.718;2022-07-10T15:22:46;1.90;;;0.95;;
18239;SDS011;9244;50.828;4.718;2022-07-10T15:25:12;1.17;;;0.93;;
18239;SDS011;9244;50.828;4.718;2022-07-10T15:27:38;2.13;;;0.90;;
18239;SDS011;9244;50.828;4.718;2022-07-10T15:30:04;1.77;;;0.95;;